MET'MAP v2.0
soon released !

Expected late october,
this new version will be
more efficient, smarter,
and hosted on a brand new
server x3 powerfull...
...and still free !


Not compatible ?
Try the mobile version !

LOG IN : | Subscribe | Disclaimer | Who is Orbifly ? |
ICAO code :

TAF - LQTZ Tuzla - 31 Oct 2020 20:26 UTC - Data Source NOAA   


- Airport Elevation : 784 ft
- IATA code : TZL
- No reported NOTAMs.


LQTZ - Tuzla

Latest METAR recorded : 2015/08/11 08:00 LQTZ 110800Z VRB01KT CAVOK 25/16 Q1014
TAF TAF LQTZ
Valid from the 31 at 18:00 until the 01 at 18:00 UTC


311700Z 3118/0118 VRB02KT 9999 SCT040 TX18/0113Z TN07/0105Z
TEMPO 3121/0109 3000 BR BKN007 BKN023
PROB30
TEMPO 0103/0108 0300 FG OVC002

Source NOAA


MET'MAP, your aeronautical weather chart ! - Copyright ORBIFLY December 2007

Programming & Development : Alexandra Zaïnal
Co-Developer : Marc-Olivier Méhu
Technical & hardware support : Manuel Goepfert
Concept & Financing : Baudouin d'Aumeries